Polgar, Hungary
Current Conditions -  °F | °C
As of 5:45 PM on Friday 21 Nov 2014 (Local Time) from LHDC Reporting Station
Broken Clouds Broken Clouds  
Wind Chill: 39°   Ceiling: 4300
Heat Index: 43°   Visibility: 6mi
Dew Point: 32°   Wind: 7mph
Humidity: 66%   Direction: 360°N
Pressure: 30.27"   Gusts: NA
Location:  47.87°N, 21.12°E
Report Text: LHDC 211545Z 36006KT 9999 BKN043 06/00 Q1025
Loading
Personal Weather Stations






























Interactive Weather Map New forecast layout! Learn more

10-Day Weather Forecast

Advertisements
Track Severe Weather on mobile